<?xml version="1.0" encoding="UTF-8" standalone="no" ?>
<gpx xmlns="http://www.topografix.com/GPX/1/1" xmlns:xsi="http://www.w3.org/2001/XMLSchema-instance" xsi:schemaLocation="http://www.topografix.com/GPX/1/1 http://www.topografix.com/GPX/1/1/gpx.xsd" version="1.1" creator="VisuGPX - https://www.visugpx.com">
  <metadata>
    <name>Tour du Dévoluy </name>
    <desc><![CDATA[Tour du Dévoluy en deux jours.
Au départ du Col du Festre, nuit au gîte du Collet.]]></desc>
  </metadata>
  <trk>
    <name><![CDATA[Tour du Dévoluy _1]]></name>
    <trkseg>
      <trkpt lat="44.66665" lon="5.85887">
        <ele>1441</ele>
        <time>2018-08-27T14:54:17Z</time>
      </trkpt>
      <trkpt lat="44.66653" lon="5.8596">
        <ele>1440</ele>
        <time>2018-08-27T14:55:17Z</time>
      </trkpt>
      <trkpt lat="44.66567" lon="5.85971">
        <ele>1439</ele>
        <time>2018-08-27T14:56:17Z</time>
      </trkpt>
      <trkpt lat="44.665" lon="5.86068">
        <ele>1433</ele>
        <time>2018-08-27T14:57:17Z</time>
      </trkpt>
      <trkpt lat="44.66385" lon="5.86135">
        <ele>1435</ele>
        <time>2018-08-27T14:58:17Z</time>
      </trkpt>
      <trkpt lat="44.66329" lon="5.86141">
        <ele>1436</ele>
        <time>2018-08-27T14:59:17Z</time>
      </trkpt>
      <trkpt lat="44.66278" lon="5.86107">
        <ele>1438</ele>
        <time>2018-08-27T15:00:17Z</time>
      </trkpt>
      <trkpt lat="44.66224" lon="5.8614">
        <ele>1439</ele>
        <time>2018-08-27T15:01:17Z</time>
      </trkpt>
      <trkpt lat="44.6626" lon="5.86219">
        <ele>1438</ele>
        <time>2018-08-27T15:02:17Z</time>
      </trkpt>
      <trkpt lat="44.66285" lon="5.8627">
        <ele>1441</ele>
        <time>2018-08-27T15:03:17Z</time>
      </trkpt>
      <trkpt lat="44.66341" lon="5.86338">
        <ele>1449</ele>
        <time>2018-08-27T15:04:17Z</time>
      </trkpt>
      <trkpt lat="44.66399" lon="5.86501">
        <ele>1463</ele>
        <time>2018-08-27T15:05:17Z</time>
      </trkpt>
      <trkpt lat="44.664" lon="5.86604">
        <ele>1461</ele>
        <time>2018-08-27T15:06:17Z</time>
      </trkpt>
      <trkpt lat="44.6661" lon="5.86906">
        <ele>1463</ele>
        <time>2018-08-27T15:07:17Z</time>
      </trkpt>
      <trkpt lat="44.66651" lon="5.87063">
        <ele>1468</ele>
        <time>2018-08-27T15:08:17Z</time>
      </trkpt>
      <trkpt lat="44.66741" lon="5.8711">
        <ele>1473</ele>
        <time>2018-08-27T15:09:17Z</time>
      </trkpt>
      <trkpt lat="44.66803" lon="5.87094">
        <ele>1472</ele>
        <time>2018-08-27T15:10:17Z</time>
      </trkpt>
      <trkpt lat="44.66989" lon="5.87167">
        <ele>1471</ele>
        <time>2018-08-27T15:11:17Z</time>
      </trkpt>
      <trkpt lat="44.67173" lon="5.8732">
        <ele>1459</ele>
        <time>2018-08-27T15:12:17Z</time>
      </trkpt>
      <trkpt lat="44.67244" lon="5.87334">
        <ele>1458</ele>
        <time>2018-08-27T15:13:17Z</time>
      </trkpt>
      <trkpt lat="44.67428" lon="5.87461">
        <ele>1445</ele>
        <time>2018-08-27T15:14:17Z</time>
      </trkpt>
      <trkpt lat="44.67705" lon="5.8779">
        <ele>1448</ele>
        <time>2018-08-27T15:15:17Z</time>
      </trkpt>
      <trkpt lat="44.67823" lon="5.87819">
        <ele>1438</ele>
        <time>2018-08-27T15:16:17Z</time>
      </trkpt>
      <trkpt lat="44.68077" lon="5.88006">
        <ele>1429</ele>
        <time>2018-08-27T15:17:17Z</time>
      </trkpt>
      <trkpt lat="44.68312" lon="5.88231">
        <ele>1425</ele>
        <time>2018-08-27T15:18:17Z</time>
      </trkpt>
      <trkpt lat="44.68421" lon="5.88331">
        <ele>1427</ele>
        <time>2018-08-27T15:19:17Z</time>
      </trkpt>
      <trkpt lat="44.68446" lon="5.88394">
        <ele>1429</ele>
        <time>2018-08-27T15:20:17Z</time>
      </trkpt>
      <trkpt lat="44.68666" lon="5.8859">
        <ele>1431</ele>
        <time>2018-08-27T15:21:17Z</time>
      </trkpt>
      <trkpt lat="44.687" lon="5.88635">
        <ele>1436</ele>
        <time>2018-08-27T15:22:17Z</time>
      </trkpt>
      <trkpt lat="44.68779" lon="5.88675">
        <ele>1435</ele>
        <time>2018-08-27T15:23:17Z</time>
      </trkpt>
      <trkpt lat="44.68799" lon="5.88731">
        <ele>1438</ele>
        <time>2018-08-27T15:24:17Z</time>
      </trkpt>
      <trkpt lat="44.68839" lon="5.88751">
        <ele>1430</ele>
        <time>2018-08-27T15:25:17Z</time>
      </trkpt>
      <trkpt lat="44.68865" lon="5.88834">
        <ele>1433</ele>
        <time>2018-08-27T15:26:17Z</time>
      </trkpt>
      <trkpt lat="44.68942" lon="5.88938">
        <ele>1431</ele>
        <time>2018-08-27T15:27:17Z</time>
      </trkpt>
      <trkpt lat="44.68961" lon="5.89038">
        <ele>1435</ele>
        <time>2018-08-27T15:28:17Z</time>
      </trkpt>
      <trkpt lat="44.69" lon="5.89078">
        <ele>1432</ele>
        <time>2018-08-27T15:29:17Z</time>
      </trkpt>
      <trkpt lat="44.69012" lon="5.89168">
        <ele>1443</ele>
        <time>2018-08-27T15:30:17Z</time>
      </trkpt>
      <trkpt lat="44.69083" lon="5.89271">
        <ele>1444</ele>
        <time>2018-08-27T15:31:17Z</time>
      </trkpt>
      <trkpt lat="44.69122" lon="5.89435">
        <ele>1453</ele>
        <time>2018-08-27T15:32:17Z</time>
      </trkpt>
      <trkpt lat="44.69194" lon="5.89435">
        <ele>1456</ele>
        <time>2018-08-27T15:33:17Z</time>
      </trkpt>
      <trkpt lat="44.69244" lon="5.89508">
        <ele>1468</ele>
        <time>2018-08-27T15:34:17Z</time>
      </trkpt>
      <trkpt lat="44.69244" lon="5.89546">
        <ele>1467</ele>
        <time>2018-08-27T15:35:17Z</time>
      </trkpt>
      <trkpt lat="44.69264" lon="5.89595">
        <ele>1466</ele>
        <time>2018-08-27T15:36:17Z</time>
      </trkpt>
      <trkpt lat="44.69257" lon="5.89632">
        <ele>1466</ele>
        <time>2018-08-27T15:37:17Z</time>
      </trkpt>
      <trkpt lat="44.69271" lon="5.89716">
        <ele>1460</ele>
        <time>2018-08-27T15:38:17Z</time>
      </trkpt>
      <trkpt lat="44.6928" lon="5.89801">
        <ele>1450</ele>
        <time>2018-08-27T15:39:17Z</time>
      </trkpt>
      <trkpt lat="44.69285" lon="5.89958">
        <ele>1444</ele>
        <time>2018-08-27T15:40:17Z</time>
      </trkpt>
      <trkpt lat="44.69256" lon="5.90076">
        <ele>1440</ele>
        <time>2018-08-27T15:41:17Z</time>
      </trkpt>
      <trkpt lat="44.69252" lon="5.90128">
        <ele>1442</ele>
        <time>2018-08-27T15:42:17Z</time>
      </trkpt>
      <trkpt lat="44.6928" lon="5.90168">
        <ele>1444</ele>
        <time>2018-08-27T15:43:17Z</time>
      </trkpt>
      <trkpt lat="44.69293" lon="5.9033">
        <ele>1457</ele>
        <time>2018-08-27T15:44:17Z</time>
      </trkpt>
      <trkpt lat="44.69337" lon="5.90438">
        <ele>1464</ele>
        <time>2018-08-27T15:45:17Z</time>
      </trkpt>
      <trkpt lat="44.69276" lon="5.9043">
        <ele>1471</ele>
        <time>2018-08-27T15:46:17Z</time>
      </trkpt>
      <trkpt lat="44.6912" lon="5.90362">
        <ele>1483</ele>
        <time>2018-08-27T15:47:17Z</time>
      </trkpt>
      <trkpt lat="44.68991" lon="5.90367">
        <ele>1506</ele>
        <time>2018-08-27T15:48:17Z</time>
      </trkpt>
      <trkpt lat="44.68626" lon="5.90391">
        <ele>1552</ele>
        <time>2018-08-27T15:49:17Z</time>
      </trkpt>
      <trkpt lat="44.68626" lon="5.9041">
        <ele>1555</ele>
        <time>2018-08-27T15:50:17Z</time>
      </trkpt>
      <trkpt lat="44.68547" lon="5.90433">
        <ele>1572</ele>
        <time>2018-08-27T15:51:17Z</time>
      </trkpt>
      <trkpt lat="44.68475" lon="5.90637">
        <ele>1589</ele>
        <time>2018-08-27T15:52:17Z</time>
      </trkpt>
      <trkpt lat="44.68448" lon="5.90638">
        <ele>1594</ele>
        <time>2018-08-27T15:53:17Z</time>
      </trkpt>
      <trkpt lat="44.68421" lon="5.90573">
        <ele>1599</ele>
        <time>2018-08-27T15:54:17Z</time>
      </trkpt>
      <trkpt lat="44.68443" lon="5.90526">
        <ele>1596</ele>
        <time>2018-08-27T15:55:17Z</time>
      </trkpt>
      <trkpt lat="44.68422" lon="5.90493">
        <ele>1601</ele>
        <time>2018-08-27T15:56:17Z</time>
      </trkpt>
      <trkpt lat="44.68415" lon="5.90444">
        <ele>1600</ele>
        <time>2018-08-27T15:57:17Z</time>
      </trkpt>
      <trkpt lat="44.6839" lon="5.90436">
        <ele>1601</ele>
        <time>2018-08-27T15:58:17Z</time>
      </trkpt>
      <trkpt lat="44.68375" lon="5.90449">
        <ele>1603</ele>
        <time>2018-08-27T15:59:17Z</time>
      </trkpt>
      <trkpt lat="44.68318" lon="5.9047">
        <ele>1610</ele>
        <time>2018-08-27T16:00:17Z</time>
      </trkpt>
      <trkpt lat="44.6828" lon="5.90542">
        <ele>1621</ele>
        <time>2018-08-27T16:01:17Z</time>
      </trkpt>
      <trkpt lat="44.68229" lon="5.90575">
        <ele>1631</ele>
        <time>2018-08-27T16:02:17Z</time>
      </trkpt>
      <trkpt lat="44.68237" lon="5.90748">
        <ele>1643</ele>
        <time>2018-08-27T16:03:17Z</time>
      </trkpt>
      <trkpt lat="44.68284" lon="5.90947">
        <ele>1651</ele>
        <time>2018-08-27T16:04:17Z</time>
      </trkpt>
      <trkpt lat="44.68244" lon="5.91011">
        <ele>1661</ele>
        <time>2018-08-27T16:05:17Z</time>
      </trkpt>
      <trkpt lat="44.6826" lon="5.91134">
        <ele>1659</ele>
        <time>2018-08-27T16:06:17Z</time>
      </trkpt>
      <trkpt lat="44.68396" lon="5.91342">
        <ele>1640</ele>
        <time>2018-08-27T16:07:17Z</time>
      </trkpt>
      <trkpt lat="44.68447" lon="5.91382">
        <ele>1632</ele>
        <time>2018-08-27T16:08:17Z</time>
      </trkpt>
      <trkpt lat="44.68487" lon="5.91402">
        <ele>1627</ele>
        <time>2018-08-27T16:09:17Z</time>
      </trkpt>
      <trkpt lat="44.68517" lon="5.91417">
        <ele>1623</ele>
        <time>2018-08-27T16:10:17Z</time>
      </trkpt>
      <trkpt lat="44.6856" lon="5.91423">
        <ele>1622</ele>
        <time>2018-08-27T16:11:17Z</time>
      </trkpt>
      <trkpt lat="44.68593" lon="5.91421">
        <ele>1621</ele>
        <time>2018-08-27T16:12:17Z</time>
      </trkpt>
      <trkpt lat="44.6864" lon="5.91414">
        <ele>1616</ele>
        <time>2018-08-27T16:13:17Z</time>
      </trkpt>
      <trkpt lat="44.68682" lon="5.91399">
        <ele>1611</ele>
        <time>2018-08-27T16:14:17Z</time>
      </trkpt>
      <trkpt lat="44.68612" lon="5.91508">
        <ele>1610</ele>
        <time>2018-08-27T16:15:17Z</time>
      </trkpt>
      <trkpt lat="44.68586" lon="5.91585">
        <ele>1602</ele>
        <time>2018-08-27T16:16:17Z</time>
      </trkpt>
      <trkpt lat="44.68572" lon="5.9165">
        <ele>1597</ele>
        <time>2018-08-27T16:17:17Z</time>
      </trkpt>
      <trkpt lat="44.6854" lon="5.91719">
        <ele>1595</ele>
        <time>2018-08-27T16:18:17Z</time>
      </trkpt>
      <trkpt lat="44.68532" lon="5.91801">
        <ele>1592</ele>
        <time>2018-08-27T16:19:17Z</time>
      </trkpt>
      <trkpt lat="44.68534" lon="5.91839">
        <ele>1591</ele>
        <time>2018-08-27T16:20:17Z</time>
      </trkpt>
      <trkpt lat="44.68521" lon="5.91875">
        <ele>1587</ele>
        <time>2018-08-27T16:21:17Z</time>
      </trkpt>
      <trkpt lat="44.68529" lon="5.91922">
        <ele>1583</ele>
        <time>2018-08-27T16:22:17Z</time>
      </trkpt>
      <trkpt lat="44.68529" lon="5.91964">
        <ele>1577</ele>
        <time>2018-08-27T16:23:17Z</time>
      </trkpt>
      <trkpt lat="44.68535" lon="5.92007">
        <ele>1572</ele>
        <time>2018-08-27T16:24:17Z</time>
      </trkpt>
      <trkpt lat="44.68519" lon="5.9203">
        <ele>1568</ele>
        <time>2018-08-27T16:25:17Z</time>
      </trkpt>
      <trkpt lat="44.68498" lon="5.92048">
        <ele>1563</ele>
        <time>2018-08-27T16:26:17Z</time>
      </trkpt>
      <trkpt lat="44.68481" lon="5.9208">
        <ele>1558</ele>
        <time>2018-08-27T16:27:17Z</time>
      </trkpt>
      <trkpt lat="44.68458" lon="5.92113">
        <ele>1552</ele>
        <time>2018-08-27T16:28:17Z</time>
      </trkpt>
      <trkpt lat="44.68429" lon="5.92177">
        <ele>1542</ele>
        <time>2018-08-27T16:29:17Z</time>
      </trkpt>
      <trkpt lat="44.68408" lon="5.9223">
        <ele>1538</ele>
        <time>2018-08-27T16:30:17Z</time>
      </trkpt>
      <trkpt lat="44.68384" lon="5.92295">
        <ele>1534</ele>
        <time>2018-08-27T16:31:17Z</time>
      </trkpt>
      <trkpt lat="44.68355" lon="5.92347">
        <ele>1531</ele>
        <time>2018-08-27T16:32:17Z</time>
      </trkpt>
      <trkpt lat="44.68339" lon="5.9242">
        <ele>1529</ele>
        <time>2018-08-27T16:33:17Z</time>
      </trkpt>
      <trkpt lat="44.68311" lon="5.92502">
        <ele>1530</ele>
        <time>2018-08-27T16:34:17Z</time>
      </trkpt>
      <trkpt lat="44.68309" lon="5.9255">
        <ele>1528</ele>
        <time>2018-08-27T16:35:17Z</time>
      </trkpt>
      <trkpt lat="44.68287" lon="5.92597">
        <ele>1526</ele>
        <time>2018-08-27T16:36:17Z</time>
      </trkpt>
      <trkpt lat="44.68278" lon="5.9265">
        <ele>1523</ele>
        <time>2018-08-27T16:37:17Z</time>
      </trkpt>
      <trkpt lat="44.68262" lon="5.92729">
        <ele>1520</ele>
        <time>2018-08-27T16:38:17Z</time>
      </trkpt>
      <trkpt lat="44.68245" lon="5.92766">
        <ele>1518</ele>
        <time>2018-08-27T16:39:17Z</time>
      </trkpt>
      <trkpt lat="44.68213" lon="5.92807">
        <ele>1514</ele>
        <time>2018-08-27T16:40:17Z</time>
      </trkpt>
      <trkpt lat="44.68178" lon="5.92819">
        <ele>1511</ele>
        <time>2018-08-27T16:41:17Z</time>
      </trkpt>
      <trkpt lat="44.68148" lon="5.92811">
        <ele>1509</ele>
        <time>2018-08-27T16:42:17Z</time>
      </trkpt>
      <trkpt lat="44.6812" lon="5.92822">
        <ele>1507</ele>
        <time>2018-08-27T16:43:17Z</time>
      </trkpt>
      <trkpt lat="44.68076" lon="5.92848">
        <ele>1505</ele>
        <time>2018-08-27T16:44:17Z</time>
      </trkpt>
      <trkpt lat="44.68048" lon="5.92858">
        <ele>1505</ele>
        <time>2018-08-27T16:45:17Z</time>
      </trkpt>
      <trkpt lat="44.68" lon="5.92866">
        <ele>1504</ele>
        <time>2018-08-27T16:46:17Z</time>
      </trkpt>
      <trkpt lat="44.6795" lon="5.92892">
        <ele>1502</ele>
        <time>2018-08-27T16:47:17Z</time>
      </trkpt>
      <trkpt lat="44.67911" lon="5.92893">
        <ele>1502</ele>
        <time>2018-08-27T16:48:17Z</time>
      </trkpt>
      <trkpt lat="44.67885" lon="5.92951">
        <ele>1499</ele>
        <time>2018-08-27T16:49:17Z</time>
      </trkpt>
      <trkpt lat="44.67775" lon="5.93019">
        <ele>1491</ele>
        <time>2018-08-27T16:50:17Z</time>
      </trkpt>
      <trkpt lat="44.67752" lon="5.93107">
        <ele>1486</ele>
        <time>2018-08-27T16:51:17Z</time>
      </trkpt>
      <trkpt lat="44.6774" lon="5.93193">
        <ele>1480</ele>
        <time>2018-08-27T16:52:17Z</time>
      </trkpt>
      <trkpt lat="44.67704" lon="5.9322">
        <ele>1477</ele>
        <time>2018-08-27T16:53:17Z</time>
      </trkpt>
      <trkpt lat="44.67642" lon="5.93207">
        <ele>1477</ele>
        <time>2018-08-27T16:54:17Z</time>
      </trkpt>
      <trkpt lat="44.67584" lon="5.93221">
        <ele>1471</ele>
        <time>2018-08-27T16:55:17Z</time>
      </trkpt>
      <trkpt lat="44.67512" lon="5.93249">
        <ele>1473</ele>
        <time>2018-08-27T16:56:17Z</time>
      </trkpt>
      <trkpt lat="44.67497" lon="5.93237">
        <ele>1475</ele>
        <time>2018-08-27T16:57:17Z</time>
      </trkpt>
      <trkpt lat="44.67488" lon="5.93261">
        <ele>1475</ele>
        <time>2018-08-27T16:58:17Z</time>
      </trkpt>
      <trkpt lat="44.67473" lon="5.93279">
        <ele>1476</ele>
        <time>2018-08-27T16:59:17Z</time>
      </trkpt>
      <trkpt lat="44.67436" lon="5.93383">
        <ele>1476</ele>
        <time>2018-08-27T17:00:17Z</time>
      </trkpt>
      <trkpt lat="44.67395" lon="5.93415">
        <ele>1478</ele>
        <time>2018-08-27T17:01:17Z</time>
      </trkpt>
      <trkpt lat="44.67348" lon="5.93399">
        <ele>1483</ele>
        <time>2018-08-27T17:02:17Z</time>
      </trkpt>
      <trkpt lat="44.67307" lon="5.93407">
        <ele>1485</ele>
        <time>2018-08-27T17:03:17Z</time>
      </trkpt>
      <trkpt lat="44.67253" lon="5.93447">
        <ele>1491</ele>
        <time>2018-08-27T17:04:17Z</time>
      </trkpt>
      <trkpt lat="44.67185" lon="5.93468">
        <ele>1502</ele>
        <time>2018-08-27T17:05:17Z</time>
      </trkpt>
      <trkpt lat="44.67089" lon="5.93414">
        <ele>1515</ele>
        <time>2018-08-27T17:06:17Z</time>
      </trkpt>
      <trkpt lat="44.67037" lon="5.93496">
        <ele>1524</ele>
        <time>2018-08-27T17:07:17Z</time>
      </trkpt>
      <trkpt lat="44.66963" lon="5.93571">
        <ele>1526</ele>
        <time>2018-08-27T17:08:17Z</time>
      </trkpt>
      <trkpt lat="44.66917" lon="5.93576">
        <ele>1527</ele>
        <time>2018-08-27T17:09:17Z</time>
      </trkpt>
      <trkpt lat="44.6682" lon="5.93679">
        <ele>1533</ele>
        <time>2018-08-27T17:10:17Z</time>
      </trkpt>
      <trkpt lat="44.66708" lon="5.93569">
        <ele>1536</ele>
        <time>2018-08-27T17:11:17Z</time>
      </trkpt>
      <trkpt lat="44.66563" lon="5.93517">
        <ele>1543</ele>
        <time>2018-08-27T17:12:17Z</time>
      </trkpt>
      <trkpt lat="44.66509" lon="5.93552">
        <ele>1546</ele>
        <time>2018-08-27T17:13:17Z</time>
      </trkpt>
      <trkpt lat="44.66327" lon="5.93529">
        <ele>1563</ele>
        <time>2018-08-27T17:14:17Z</time>
      </trkpt>
      <trkpt lat="44.66252" lon="5.93543">
        <ele>1562</ele>
        <time>2018-08-27T17:15:17Z</time>
      </trkpt>
      <trkpt lat="44.66201" lon="5.93518">
        <ele>1561</ele>
        <time>2018-08-27T17:16:17Z</time>
      </trkpt>
      <trkpt lat="44.6614" lon="5.93496">
        <ele>1560</ele>
        <time>2018-08-27T17:17:17Z</time>
      </trkpt>
      <trkpt lat="44.65997" lon="5.93524">
        <ele>1536</ele>
        <time>2018-08-27T17:18:17Z</time>
      </trkpt>
      <trkpt lat="44.65875" lon="5.93488">
        <ele>1543</ele>
        <time>2018-08-27T17:19:17Z</time>
      </trkpt>
      <trkpt lat="44.65754" lon="5.93507">
        <ele>1539</ele>
        <time>2018-08-27T17:20:17Z</time>
      </trkpt>
      <trkpt lat="44.65667" lon="5.93607">
        <ele>1548</ele>
        <time>2018-08-27T17:21:17Z</time>
      </trkpt>
      <trkpt lat="44.6563" lon="5.93749">
        <ele>1540</ele>
        <time>2018-08-27T17:22:17Z</time>
      </trkpt>
      <trkpt lat="44.65569" lon="5.93778">
        <ele>1545</ele>
        <time>2018-08-27T17:23:17Z</time>
      </trkpt>
      <trkpt lat="44.65572" lon="5.93884">
        <ele>1541</ele>
        <time>2018-08-27T17:24:17Z</time>
      </trkpt>
      <trkpt lat="44.65646" lon="5.93987">
        <ele>1523</ele>
        <time>2018-08-27T17:25:17Z</time>
      </trkpt>
      <trkpt lat="44.656" lon="5.94017">
        <ele>1529</ele>
        <time>2018-08-27T17:26:17Z</time>
      </trkpt>
      <trkpt lat="44.656" lon="5.9405">
        <ele>1525</ele>
        <time>2018-08-27T17:27:17Z</time>
      </trkpt>
      <trkpt lat="44.65584" lon="5.94115">
        <ele>1524</ele>
        <time>2018-08-27T17:28:17Z</time>
      </trkpt>
      <trkpt lat="44.65609" lon="5.94259">
        <ele>1509</ele>
        <time>2018-08-27T17:29:17Z</time>
      </trkpt>
      <trkpt lat="44.65604" lon="5.94403">
        <ele>1511</ele>
        <time>2018-08-27T17:30:17Z</time>
      </trkpt>
      <trkpt lat="44.65765" lon="5.94502">
        <ele>1489</ele>
        <time>2018-08-27T17:31:17Z</time>
      </trkpt>
      <trkpt lat="44.65733" lon="5.94764">
        <ele>1509</ele>
        <time>2018-08-27T17:32:17Z</time>
      </trkpt>
      <trkpt lat="44.65769" lon="5.94784">
        <ele>1503</ele>
        <time>2018-08-27T17:33:17Z</time>
      </trkpt>
      <trkpt lat="44.6583" lon="5.94777">
        <ele>1493</ele>
        <time>2018-08-27T17:34:17Z</time>
      </trkpt>
      <trkpt lat="44.65858" lon="5.94907">
        <ele>1501</ele>
        <time>2018-08-27T17:35:17Z</time>
      </trkpt>
      <trkpt lat="44.65908" lon="5.9499">
        <ele>1492</ele>
        <time>2018-08-27T17:36:17Z</time>
      </trkpt>
      <trkpt lat="44.66042" lon="5.95115">
        <ele>1470</ele>
        <time>2018-08-27T17:37:17Z</time>
      </trkpt>
      <trkpt lat="44.6614" lon="5.9517">
        <ele>1453</ele>
        <time>2018-08-27T17:38:17Z</time>
      </trkpt>
      <trkpt lat="44.66203" lon="5.95193">
        <ele>1441</ele>
        <time>2018-08-27T17:39:17Z</time>
      </trkpt>
      <trkpt lat="44.66326" lon="5.95307">
        <ele>1421</ele>
        <time>2018-08-27T17:40:17Z</time>
      </trkpt>
      <trkpt lat="44.66329" lon="5.95363">
        <ele>1421</ele>
        <time>2018-08-27T17:41:17Z</time>
      </trkpt>
      <trkpt lat="44.66353" lon="5.95419">
        <ele>1413</ele>
        <time>2018-08-27T17:42:17Z</time>
      </trkpt>
      <trkpt lat="44.66381" lon="5.95567">
        <ele>1402</ele>
        <time>2018-08-27T17:43:17Z</time>
      </trkpt>
      <trkpt lat="44.66415" lon="5.95553">
        <ele>1392</ele>
        <time>2018-08-27T17:44:17Z</time>
      </trkpt>
      <trkpt lat="44.66601" lon="5.95178">
        <ele>1362</ele>
        <time>2018-08-27T17:45:17Z</time>
      </trkpt>
      <trkpt lat="44.66699" lon="5.95169">
        <ele>1358</ele>
        <time>2018-08-27T17:46:17Z</time>
      </trkpt>
      <trkpt lat="44.66819" lon="5.95118">
        <ele>1359</ele>
        <time>2018-08-27T17:47:17Z</time>
      </trkpt>
      <trkpt lat="44.66915" lon="5.95116">
        <ele>1368</ele>
        <time>2018-08-27T17:48:17Z</time>
      </trkpt>
      <trkpt lat="44.66989" lon="5.95144">
        <ele>1367</ele>
        <time>2018-08-27T17:49:17Z</time>
      </trkpt>
      <trkpt lat="44.67035" lon="5.95118">
        <ele>1372</ele>
        <time>2018-08-27T17:50:17Z</time>
      </trkpt>
      <trkpt lat="44.67101" lon="5.95108">
        <ele>1374</ele>
        <time>2018-08-27T17:51:17Z</time>
      </trkpt>
      <trkpt lat="44.67187" lon="5.95125">
        <ele>1372</ele>
        <time>2018-08-27T17:52:17Z</time>
      </trkpt>
      <trkpt lat="44.67332" lon="5.95095">
        <ele>1367</ele>
        <time>2018-08-27T17:53:17Z</time>
      </trkpt>
      <trkpt lat="44.67504" lon="5.9509">
        <ele>1351</ele>
        <time>2018-08-27T17:54:17Z</time>
      </trkpt>
      <trkpt lat="44.67701" lon="5.94945">
        <ele>1330</ele>
        <time>2018-08-27T17:55:17Z</time>
      </trkpt>
      <trkpt lat="44.67751" lon="5.94958">
        <ele>1320</ele>
        <time>2018-08-27T17:56:17Z</time>
      </trkpt>
      <trkpt lat="44.67809" lon="5.94919">
        <ele>1315</ele>
        <time>2018-08-27T17:57:17Z</time>
      </trkpt>
      <trkpt lat="44.6785" lon="5.94923">
        <ele>1309</ele>
        <time>2018-08-27T17:58:17Z</time>
      </trkpt>
      <trkpt lat="44.67871" lon="5.94902">
        <ele>1310</ele>
        <time>2018-08-27T17:59:17Z</time>
      </trkpt>
      <trkpt lat="44.67926" lon="5.94911">
        <ele>1305</ele>
        <time>2018-08-27T18:00:17Z</time>
      </trkpt>
      <trkpt lat="44.68129" lon="5.94986">
        <ele>1298</ele>
        <time>2018-08-27T18:01:17Z</time>
      </trkpt>
      <trkpt lat="44.68311" lon="5.94887">
        <ele>1291</ele>
        <time>2018-08-27T18:02:17Z</time>
      </trkpt>
      <trkpt lat="44.68396" lon="5.94865">
        <ele>1292</ele>
        <time>2018-08-27T18:03:17Z</time>
      </trkpt>
      <trkpt lat="44.68516" lon="5.94799">
        <ele>1288</ele>
        <time>2018-08-27T18:04:17Z</time>
      </trkpt>
      <trkpt lat="44.68697" lon="5.94619">
        <ele>1276</ele>
        <time>2018-08-27T18:05:17Z</time>
      </trkpt>
      <trkpt lat="44.68659" lon="5.94484">
        <ele>1275</ele>
        <time>2018-08-27T18:06:17Z</time>
      </trkpt>
      <trkpt lat="44.68682" lon="5.94475">
        <ele>1275</ele>
        <time>2018-08-27T18:07:17Z</time>
      </trkpt>
      <trkpt lat="44.68749" lon="5.94405">
        <ele>1273</ele>
        <time>2018-08-27T18:08:17Z</time>
      </trkpt>
      <trkpt lat="44.68772" lon="5.94364">
        <ele>1275</ele>
        <time>2018-08-27T18:09:17Z</time>
      </trkpt>
      <trkpt lat="44.68845" lon="5.94307">
        <ele>1271</ele>
        <time>2018-08-27T18:10:17Z</time>
      </trkpt>
      <trkpt lat="44.68876" lon="5.94299">
        <ele>1269</ele>
        <time>2018-08-27T18:11:17Z</time>
      </trkpt>
      <trkpt lat="44.68899" lon="5.94277">
        <ele>1268</ele>
        <time>2018-08-27T18:12:17Z</time>
      </trkpt>
      <trkpt lat="44.68925" lon="5.94272">
        <ele>1265</ele>
        <time>2018-08-27T18:13:17Z</time>
      </trkpt>
      <trkpt lat="44.68957" lon="5.94194">
        <ele>1265</ele>
        <time>2018-08-27T18:14:17Z</time>
      </trkpt>
      <trkpt lat="44.68907" lon="5.94092">
        <ele>1276</ele>
        <time>2018-08-27T18:15:17Z</time>
      </trkpt>
      <trkpt lat="44.6886" lon="5.94055">
        <ele>1284</ele>
        <time>2018-08-27T18:16:17Z</time>
      </trkpt>
      <trkpt lat="44.68813" lon="5.93982">
        <ele>1298</ele>
        <time>2018-08-27T18:17:17Z</time>
      </trkpt>
      <trkpt lat="44.68763" lon="5.93982">
        <ele>1307</ele>
        <time>2018-08-27T18:18:17Z</time>
      </trkpt>
      <trkpt lat="44.68724" lon="5.93903">
        <ele>1328</ele>
        <time>2018-08-27T18:19:17Z</time>
      </trkpt>
      <trkpt lat="44.68653" lon="5.9386">
        <ele>1351</ele>
        <time>2018-08-27T18:20:17Z</time>
      </trkpt>
      <trkpt lat="44.68629" lon="5.93868">
        <ele>1355</ele>
        <time>2018-08-27T18:21:17Z</time>
      </trkpt>
      <trkpt lat="44.68593" lon="5.93791">
        <ele>1373</ele>
        <time>2018-08-27T18:22:17Z</time>
      </trkpt>
      <trkpt lat="44.6846" lon="5.93707">
        <ele>1420</ele>
        <time>2018-08-27T18:23:17Z</time>
      </trkpt>
      <trkpt lat="44.68329" lon="5.93572">
        <ele>1451</ele>
        <time>2018-08-27T18:24:17Z</time>
      </trkpt>
      <trkpt lat="44.68323" lon="5.93491">
        <ele>1458</ele>
        <time>2018-08-27T18:25:17Z</time>
      </trkpt>
      <trkpt lat="44.68296" lon="5.93454">
        <ele>1467</ele>
        <time>2018-08-27T18:26:17Z</time>
      </trkpt>
      <trkpt lat="44.68267" lon="5.93083">
        <ele>1509</ele>
        <time>2018-08-27T18:27:17Z</time>
      </trkpt>
      <trkpt lat="44.68264" lon="5.92753">
        <ele>1520</ele>
        <time>2018-08-27T18:28:17Z</time>
      </trkpt>
      <trkpt lat="44.68309" lon="5.92492">
        <ele>1530</ele>
        <time>2018-08-27T18:29:17Z</time>
      </trkpt>
      <trkpt lat="44.68449" lon="5.92125">
        <ele>1550</ele>
        <time>2018-08-27T18:30:17Z</time>
      </trkpt>
      <trkpt lat="44.68476" lon="5.92101">
        <ele>1555</ele>
        <time>2018-08-27T18:31:17Z</time>
      </trkpt>
      <trkpt lat="44.68534" lon="5.92007">
        <ele>1572</ele>
        <time>2018-08-27T18:32:17Z</time>
      </trkpt>
      <trkpt lat="44.68521" lon="5.91879">
        <ele>1587</ele>
        <time>2018-08-27T18:33:17Z</time>
      </trkpt>
      <trkpt lat="44.68537" lon="5.91829">
        <ele>1591</ele>
        <time>2018-08-27T18:34:17Z</time>
      </trkpt>
      <trkpt lat="44.68534" lon="5.91749">
        <ele>1594</ele>
        <time>2018-08-27T18:35:17Z</time>
      </trkpt>
      <trkpt lat="44.68594" lon="5.91553">
        <ele>1606</ele>
        <time>2018-08-27T18:36:17Z</time>
      </trkpt>
      <trkpt lat="44.68708" lon="5.91353">
        <ele>1600</ele>
        <time>2018-08-27T18:37:17Z</time>
      </trkpt>
      <trkpt lat="44.68743" lon="5.91399">
        <ele>1607</ele>
        <time>2018-08-27T18:38:17Z</time>
      </trkpt>
      <trkpt lat="44.68799" lon="5.91401">
        <ele>1605</ele>
        <time>2018-08-27T18:39:17Z</time>
      </trkpt>
      <trkpt lat="44.68851" lon="5.91411">
        <ele>1605</ele>
        <time>2018-08-27T18:40:17Z</time>
      </trkpt>
      <trkpt lat="44.68928" lon="5.91412">
        <ele>1593</ele>
        <time>2018-08-27T18:41:17Z</time>
      </trkpt>
      <trkpt lat="44.68953" lon="5.91386">
        <ele>1586</ele>
        <time>2018-08-27T18:42:17Z</time>
      </trkpt>
      <trkpt lat="44.69066" lon="5.91395">
        <ele>1580</ele>
        <time>2018-08-27T18:43:17Z</time>
      </trkpt>
      <trkpt lat="44.69137" lon="5.91437">
        <ele>1571</ele>
        <time>2018-08-27T18:44:17Z</time>
      </trkpt>
      <trkpt lat="44.6918" lon="5.91504">
        <ele>1569</ele>
        <time>2018-08-27T18:45:17Z</time>
      </trkpt>
      <trkpt lat="44.69166" lon="5.91361">
        <ele>1556</ele>
        <time>2018-08-27T18:46:17Z</time>
      </trkpt>
      <trkpt lat="44.69114" lon="5.91258">
        <ele>1546</ele>
        <time>2018-08-27T18:47:17Z</time>
      </trkpt>
      <trkpt lat="44.6925" lon="5.91322">
        <ele>1537</ele>
        <time>2018-08-27T18:48:17Z</time>
      </trkpt>
      <trkpt lat="44.69269" lon="5.91342">
        <ele>1535</ele>
        <time>2018-08-27T18:49:17Z</time>
      </trkpt>
      <trkpt lat="44.69282" lon="5.91368">
        <ele>1535</ele>
        <time>2018-08-27T18:50:17Z</time>
      </trkpt>
      <trkpt lat="44.69371" lon="5.91473">
        <ele>1529</ele>
        <time>2018-08-27T18:51:17Z</time>
      </trkpt>
      <trkpt lat="44.69382" lon="5.91503">
        <ele>1530</ele>
        <time>2018-08-27T18:52:17Z</time>
      </trkpt>
      <trkpt lat="44.6937" lon="5.91534">
        <ele>1533</ele>
        <time>2018-08-27T18:53:17Z</time>
      </trkpt>
      <trkpt lat="44.69431" lon="5.91575">
        <ele>1524</ele>
        <time>2018-08-27T18:54:17Z</time>
      </trkpt>
      <trkpt lat="44.69458" lon="5.9157">
        <ele>1518</ele>
        <time>2018-08-27T18:55:17Z</time>
      </trkpt>
      <trkpt lat="44.69488" lon="5.91525">
        <ele>1509</ele>
        <time>2018-08-27T18:56:17Z</time>
      </trkpt>
      <trkpt lat="44.69522" lon="5.91403">
        <ele>1493</ele>
        <time>2018-08-27T18:57:17Z</time>
      </trkpt>
      <trkpt lat="44.69536" lon="5.9138">
        <ele>1489</ele>
        <time>2018-08-27T18:58:17Z</time>
      </trkpt>
      <trkpt lat="44.69544" lon="5.91345">
        <ele>1484</ele>
        <time>2018-08-27T18:59:17Z</time>
      </trkpt>
      <trkpt lat="44.69562" lon="5.91328">
        <ele>1479</ele>
        <time>2018-08-27T19:00:17Z</time>
      </trkpt>
      <trkpt lat="44.6962" lon="5.9139">
        <ele>1470</ele>
        <time>2018-08-27T19:01:17Z</time>
      </trkpt>
      <trkpt lat="44.69651" lon="5.91432">
        <ele>1463</ele>
        <time>2018-08-27T19:02:17Z</time>
      </trkpt>
      <trkpt lat="44.69656" lon="5.9146">
        <ele>1461</ele>
        <time>2018-08-27T19:03:17Z</time>
      </trkpt>
      <trkpt lat="44.69645" lon="5.91488">
        <ele>1464</ele>
        <time>2018-08-27T19:04:17Z</time>
      </trkpt>
      <trkpt lat="44.69635" lon="5.9155">
        <ele>1466</ele>
        <time>2018-08-27T19:05:17Z</time>
      </trkpt>
      <trkpt lat="44.69637" lon="5.91581">
        <ele>1466</ele>
        <time>2018-08-27T19:06:17Z</time>
      </trkpt>
      <trkpt lat="44.69615" lon="5.91711">
        <ele>1471</ele>
        <time>2018-08-27T19:07:17Z</time>
      </trkpt>
      <trkpt lat="44.69615" lon="5.91746">
        <ele>1470</ele>
        <time>2018-08-27T19:08:17Z</time>
      </trkpt>
      <trkpt lat="44.69663" lon="5.91886">
        <ele>1459</ele>
        <time>2018-08-27T19:09:17Z</time>
      </trkpt>
      <trkpt lat="44.69685" lon="5.91907">
        <ele>1455</ele>
        <time>2018-08-27T19:10:17Z</time>
      </trkpt>
      <trkpt lat="44.69711" lon="5.91962">
        <ele>1448</ele>
        <time>2018-08-27T19:11:17Z</time>
      </trkpt>
      <trkpt lat="44.69707" lon="5.91997">
        <ele>1446</ele>
        <time>2018-08-27T19:12:17Z</time>
      </trkpt>
      <trkpt lat="44.69739" lon="5.92042">
        <ele>1434</ele>
        <time>2018-08-27T19:13:17Z</time>
      </trkpt>
      <trkpt lat="44.69766" lon="5.92087">
        <ele>1420</ele>
        <time>2018-08-27T19:14:17Z</time>
      </trkpt>
      <trkpt lat="44.69784" lon="5.92106">
        <ele>1413</ele>
        <time>2018-08-27T19:15:17Z</time>
      </trkpt>
      <trkpt lat="44.69808" lon="5.92107">
        <ele>1408</ele>
        <time>2018-08-27T19:16:17Z</time>
      </trkpt>
      <trkpt lat="44.69805" lon="5.92171">
        <ele>1399</ele>
        <time>2018-08-27T19:17:17Z</time>
      </trkpt>
      <trkpt lat="44.6982" lon="5.92193">
        <ele>1396</ele>
        <time>2018-08-27T19:18:17Z</time>
      </trkpt>
      <trkpt lat="44.6989" lon="5.92213">
        <ele>1378</ele>
        <time>2018-08-27T19:19:17Z</time>
      </trkpt>
      <trkpt lat="44.69909" lon="5.92236">
        <ele>1371</ele>
        <time>2018-08-27T19:20:17Z</time>
      </trkpt>
      <trkpt lat="44.69925" lon="5.92241">
        <ele>1366</ele>
        <time>2018-08-27T19:21:17Z</time>
      </trkpt>
      <trkpt lat="44.69973" lon="5.92227">
        <ele>1355</ele>
        <time>2018-08-27T19:22:17Z</time>
      </trkpt>
      <trkpt lat="44.69997" lon="5.92233">
        <ele>1348</ele>
        <time>2018-08-27T19:23:17Z</time>
      </trkpt>
      <trkpt lat="44.70003" lon="5.92293">
        <ele>1339</ele>
        <time>2018-08-27T19:24:17Z</time>
      </trkpt>
      <trkpt lat="44.69987" lon="5.92322">
        <ele>1340</ele>
        <time>2018-08-27T19:25:17Z</time>
      </trkpt>
      <trkpt lat="44.69977" lon="5.92385">
        <ele>1335</ele>
        <time>2018-08-27T19:26:17Z</time>
      </trkpt>
      <trkpt lat="44.69981" lon="5.92418">
        <ele>1330</ele>
        <time>2018-08-27T19:27:17Z</time>
      </trkpt>
      <trkpt lat="44.70018" lon="5.9246">
        <ele>1317</ele>
        <time>2018-08-27T19:28:17Z</time>
      </trkpt>
      <trkpt lat="44.70032" lon="5.92435">
        <ele>1315</ele>
        <time>2018-08-27T19:29:17Z</time>
      </trkpt>
      <trkpt lat="44.70054" lon="5.92432">
        <ele>1310</ele>
        <time>2018-08-27T19:30:17Z</time>
      </trkpt>
      <trkpt lat="44.70187" lon="5.92295">
        <ele>1292</ele>
        <time>2018-08-27T19:31:17Z</time>
      </trkpt>
      <trkpt lat="44.70207" lon="5.92199">
        <ele>1298</ele>
        <time>2018-08-27T19:32:17Z</time>
      </trkpt>
      <trkpt lat="44.70258" lon="5.92112">
        <ele>1293</ele>
        <time>2018-08-27T19:33:17Z</time>
      </trkpt>
      <trkpt lat="44.70276" lon="5.92092">
        <ele>1291</ele>
        <time>2018-08-27T19:34:17Z</time>
      </trkpt>
      <trkpt lat="44.70311" lon="5.92072">
        <ele>1287</ele>
        <time>2018-08-27T19:35:17Z</time>
      </trkpt>
      <trkpt lat="44.70331" lon="5.92084">
        <ele>1281</ele>
        <time>2018-08-27T19:36:17Z</time>
      </trkpt>
      <trkpt lat="44.70375" lon="5.92163">
        <ele>1269</ele>
        <time>2018-08-27T19:37:17Z</time>
      </trkpt>
      <trkpt lat="44.7038" lon="5.92243">
        <ele>1261</ele>
        <time>2018-08-27T19:38:17Z</time>
      </trkpt>
      <trkpt lat="44.70462" lon="5.92462">
        <ele>1234</ele>
        <time>2018-08-27T19:39:17Z</time>
      </trkpt>
      <trkpt lat="44.7046" lon="5.92509">
        <ele>1231</ele>
        <time>2018-08-27T19:40:17Z</time>
      </trkpt>
      <trkpt lat="44.70412" lon="5.92595">
        <ele>1226</ele>
        <time>2018-08-27T19:41:17Z</time>
      </trkpt>
      <trkpt lat="44.70376" lon="5.92674">
        <ele>1214</ele>
        <time>2018-08-27T19:42:17Z</time>
      </trkpt>
      <trkpt lat="44.70318" lon="5.92776">
        <ele>1205</ele>
        <time>2018-08-27T19:43:17Z</time>
      </trkpt>
      <trkpt lat="44.70316" lon="5.9284">
        <ele>1201</ele>
        <time>2018-08-27T19:44:17Z</time>
      </trkpt>
      <trkpt lat="44.70311" lon="5.92891">
        <ele>1202</ele>
        <time>2018-08-27T19:45:17Z</time>
      </trkpt>
      <trkpt lat="44.70336" lon="5.92934">
        <ele>1203</ele>
        <time>2018-08-27T19:46:17Z</time>
      </trkpt>
      <trkpt lat="44.70372" lon="5.92953">
        <ele>1203</ele>
        <time>2018-08-27T19:47:17Z</time>
      </trkpt>
      <trkpt lat="44.70427" lon="5.92963">
        <ele>1201</ele>
        <time>2018-08-27T19:48:17Z</time>
      </trkpt>
      <trkpt lat="44.70455" lon="5.92991">
        <ele>1201</ele>
        <time>2018-08-27T19:49:17Z</time>
      </trkpt>
      <trkpt lat="44.70491" lon="5.92964">
        <ele>1199</ele>
        <time>2018-08-27T19:50:17Z</time>
      </trkpt>
      <trkpt lat="44.70529" lon="5.9297">
        <ele>1197</ele>
        <time>2018-08-27T19:51:17Z</time>
      </trkpt>
      <trkpt lat="44.7055" lon="5.93011">
        <ele>1200</ele>
        <time>2018-08-27T19:52:17Z</time>
      </trkpt>
      <trkpt lat="44.70626" lon="5.9302">
        <ele>1199</ele>
        <time>2018-08-27T19:53:17Z</time>
      </trkpt>
      <trkpt lat="44.70639" lon="5.93039">
        <ele>1203</ele>
        <time>2018-08-27T19:54:17Z</time>
      </trkpt>
      <trkpt lat="44.70692" lon="5.9303">
        <ele>1198</ele>
        <time>2018-08-27T19:55:17Z</time>
      </trkpt>
      <trkpt lat="44.70745" lon="5.93096">
        <ele>1203</ele>
        <time>2018-08-27T19:56:17Z</time>
      </trkpt>
      <trkpt lat="44.7077" lon="5.93098">
        <ele>1200</ele>
        <time>2018-08-27T19:57:17Z</time>
      </trkpt>
      <trkpt lat="44.70795" lon="5.93128">
        <ele>1204</ele>
        <time>2018-08-27T19:58:17Z</time>
      </trkpt>
      <trkpt lat="44.70839" lon="5.93127">
        <ele>1196</ele>
        <time>2018-08-27T19:59:17Z</time>
      </trkpt>
      <trkpt lat="44.7085" lon="5.93136">
        <ele>1197</ele>
        <time>2018-08-27T20:00:17Z</time>
      </trkpt>
      <trkpt lat="44.70915" lon="5.9314">
        <ele>1193</ele>
        <time>2018-08-27T20:01:17Z</time>
      </trkpt>
      <trkpt lat="44.70964" lon="5.93189">
        <ele>1201</ele>
        <time>2018-08-27T20:02:17Z</time>
      </trkpt>
      <trkpt lat="44.71001" lon="5.93201">
        <ele>1203</ele>
        <time>2018-08-27T20:03:17Z</time>
      </trkpt>
      <trkpt lat="44.71024" lon="5.93148">
        <ele>1193</ele>
        <time>2018-08-27T20:04:17Z</time>
      </trkpt>
      <trkpt lat="44.71072" lon="5.93111">
        <ele>1192</ele>
        <time>2018-08-27T20:05:17Z</time>
      </trkpt>
      <trkpt lat="44.71046" lon="5.93093">
        <ele>1190</ele>
        <time>2018-08-27T20:06:17Z</time>
      </trkpt>
      <trkpt lat="44.71058" lon="5.93036">
        <ele>1189</ele>
        <time>2018-08-27T20:07:17Z</time>
      </trkpt>
      <trkpt lat="44.71091" lon="5.92973">
        <ele>1188</ele>
        <time>2018-08-27T20:08:17Z</time>
      </trkpt>
      <trkpt lat="44.71152" lon="5.92957">
        <ele>1188</ele>
        <time>2018-08-27T20:09:17Z</time>
      </trkpt>
      <trkpt lat="44.71168" lon="5.92965">
        <ele>1189</ele>
        <time>2018-08-27T20:10:17Z</time>
      </trkpt>
      <trkpt lat="44.7124" lon="5.92974">
        <ele>1192</ele>
        <time>2018-08-27T20:11:17Z</time>
      </trkpt>
      <trkpt lat="44.71282" lon="5.92954">
        <ele>1193</ele>
        <time>2018-08-27T20:12:17Z</time>
      </trkpt>
      <trkpt lat="44.71325" lon="5.92987">
        <ele>1198</ele>
        <time>2018-08-27T20:13:17Z</time>
      </trkpt>
      <trkpt lat="44.71377" lon="5.9305">
        <ele>1212</ele>
        <time>2018-08-27T20:14:17Z</time>
      </trkpt>
      <trkpt lat="44.71394" lon="5.93007">
        <ele>1209</ele>
        <time>2018-08-27T20:15:17Z</time>
      </trkpt>
      <trkpt lat="44.71473" lon="5.92955">
        <ele>1215</ele>
        <time>2018-08-27T20:16:17Z</time>
      </trkpt>
      <trkpt lat="44.71597" lon="5.92828">
        <ele>1225</ele>
        <time>2018-08-27T20:17:17Z</time>
      </trkpt>
      <trkpt lat="44.71651" lon="5.9282">
        <ele>1232</ele>
        <time>2018-08-27T20:18:17Z</time>
      </trkpt>
      <trkpt lat="44.71733" lon="5.92746">
        <ele>1239</ele>
        <time>2018-08-27T20:19:17Z</time>
      </trkpt>
      <trkpt lat="44.7175" lon="5.92743">
        <ele>1242</ele>
        <time>2018-08-27T20:20:17Z</time>
      </trkpt>
      <trkpt lat="44.718" lon="5.92652">
        <ele>1243</ele>
        <time>2018-08-27T20:21:17Z</time>
      </trkpt>
      <trkpt lat="44.71905" lon="5.92706">
        <ele>1264</ele>
        <time>2018-08-27T20:22:17Z</time>
      </trkpt>
      <trkpt lat="44.71973" lon="5.92662">
        <ele>1274</ele>
        <time>2018-08-27T20:23:17Z</time>
      </trkpt>
      <trkpt lat="44.72079" lon="5.92647">
        <ele>1290</ele>
        <time>2018-08-27T20:24:17Z</time>
      </trkpt>
      <trkpt lat="44.72184" lon="5.92647">
        <ele>1298</ele>
        <time>2018-08-27T20:25:17Z</time>
      </trkpt>
      <trkpt lat="44.72281" lon="5.92696">
        <ele>1309</ele>
        <time>2018-08-27T20:26:17Z</time>
      </trkpt>
      <trkpt lat="44.72323" lon="5.92674">
        <ele>1311</ele>
        <time>2018-08-27T20:27:17Z</time>
      </trkpt>
      <trkpt lat="44.72405" lon="5.92677">
        <ele>1321</ele>
        <time>2018-08-27T20:28:17Z</time>
      </trkpt>
      <trkpt lat="44.72483" lon="5.9264">
        <ele>1323</ele>
        <time>2018-08-27T20:29:17Z</time>
      </trkpt>
      <trkpt lat="44.72603" lon="5.92688">
        <ele>1340</ele>
        <time>2018-08-27T20:30:17Z</time>
      </trkpt>
      <trkpt lat="44.72675" lon="5.92656">
        <ele>1343</ele>
        <time>2018-08-27T20:31:17Z</time>
      </trkpt>
      <trkpt lat="44.7286" lon="5.92743">
        <ele>1357</ele>
        <time>2018-08-27T20:32:17Z</time>
      </trkpt>
      <trkpt lat="44.73035" lon="5.92743">
        <ele>1361</ele>
        <time>2018-08-27T20:33:17Z</time>
      </trkpt>
      <trkpt lat="44.73105" lon="5.92671">
        <ele>1353</ele>
        <time>2018-08-27T20:34:17Z</time>
      </trkpt>
      <trkpt lat="44.73213" lon="5.92642">
        <ele>1348</ele>
        <time>2018-08-27T20:35:17Z</time>
      </trkpt>
      <trkpt lat="44.7334" lon="5.92685">
        <ele>1348</ele>
        <time>2018-08-27T20:36:17Z</time>
      </trkpt>
      <trkpt lat="44.73362" lon="5.92715">
        <ele>1347</ele>
        <time>2018-08-27T20:37:17Z</time>
      </trkpt>
      <trkpt lat="44.734" lon="5.9273">
        <ele>1340</ele>
        <time>2018-08-27T20:38:17Z</time>
      </trkpt>
      <trkpt lat="44.7342" lon="5.92822">
        <ele>1341</ele>
        <time>2018-08-27T20:39:17Z</time>
      </trkpt>
      <trkpt lat="44.73413" lon="5.92882">
        <ele>1346</ele>
        <time>2018-08-27T20:40:17Z</time>
      </trkpt>
      <trkpt lat="44.73432" lon="5.92906">
        <ele>1346</ele>
        <time>2018-08-27T20:41:17Z</time>
      </trkpt>
      <trkpt lat="44.73575" lon="5.92745">
        <ele>1311</ele>
        <time>2018-08-27T20:42:17Z</time>
      </trkpt>
      <trkpt lat="44.73623" lon="5.92792">
        <ele>1320</ele>
        <time>2018-08-27T20:43:17Z</time>
      </trkpt>
      <trkpt lat="44.73688" lon="5.92709">
        <ele>1317</ele>
        <time>2018-08-27T20:44:17Z</time>
      </trkpt>
      <trkpt lat="44.73593" lon="5.92531">
        <ele>1313</ele>
        <time>2018-08-27T20:45:17Z</time>
      </trkpt>
      <trkpt lat="44.73558" lon="5.9235">
        <ele>1323</ele>
        <time>2018-08-27T20:46:17Z</time>
      </trkpt>
      <trkpt lat="44.73536" lon="5.92269">
        <ele>1329</ele>
        <time>2018-08-27T20:47:17Z</time>
      </trkpt>
      <trkpt lat="44.73534" lon="5.92243">
        <ele>1333</ele>
        <time>2018-08-27T20:48:17Z</time>
      </trkpt>
      <trkpt lat="44.73484" lon="5.92158">
        <ele>1333</ele>
        <time>2018-08-27T20:49:17Z</time>
      </trkpt>
      <trkpt lat="44.73493" lon="5.92038">
        <ele>1347</ele>
        <time>2018-08-27T20:50:17Z</time>
      </trkpt>
      <trkpt lat="44.73455" lon="5.91785">
        <ele>1343</ele>
        <time>2018-08-27T20:51:17Z</time>
      </trkpt>
      <trkpt lat="44.735" lon="5.91711">
        <ele>1355</ele>
        <time>2018-08-27T20:52:17Z</time>
      </trkpt>
      <trkpt lat="44.73493" lon="5.91654">
        <ele>1349</ele>
        <time>2018-08-27T20:53:17Z</time>
      </trkpt>
      <trkpt lat="44.73508" lon="5.9161">
        <ele>1353</ele>
        <time>2018-08-27T20:54:17Z</time>
      </trkpt>
      <trkpt lat="44.73506" lon="5.91563">
        <ele>1347</ele>
        <time>2018-08-27T20:55:17Z</time>
      </trkpt>
      <trkpt lat="44.73567" lon="5.91415">
        <ele>1344</ele>
        <time>2018-08-27T20:56:17Z</time>
      </trkpt>
      <trkpt lat="44.73632" lon="5.91365">
        <ele>1355</ele>
        <time>2018-08-27T20:57:17Z</time>
      </trkpt>
      <trkpt lat="44.73679" lon="5.91243">
        <ele>1358</ele>
        <time>2018-08-27T20:58:17Z</time>
      </trkpt>
      <trkpt lat="44.73665" lon="5.91165">
        <ele>1360</ele>
        <time>2018-08-27T20:59:17Z</time>
      </trkpt>
      <trkpt lat="44.73594" lon="5.91057">
        <ele>1355</ele>
        <time>2018-08-27T21:00:17Z</time>
      </trkpt>
      <trkpt lat="44.7358" lon="5.90979">
        <ele>1357</ele>
        <time>2018-08-27T21:01:17Z</time>
      </trkpt>
      <trkpt lat="44.73614" lon="5.9091">
        <ele>1357</ele>
        <time>2018-08-27T21:02:17Z</time>
      </trkpt>
      <trkpt lat="44.73737" lon="5.90919">
        <ele>1354</ele>
        <time>2018-08-27T21:03:17Z</time>
      </trkpt>
      <trkpt lat="44.73764" lon="5.90895">
        <ele>1346</ele>
        <time>2018-08-27T21:04:17Z</time>
      </trkpt>
      <trkpt lat="44.73824" lon="5.90892">
        <ele>1345</ele>
        <time>2018-08-27T21:05:17Z</time>
      </trkpt>
      <trkpt lat="44.7386" lon="5.90859">
        <ele>1336</ele>
        <time>2018-08-27T21:06:17Z</time>
      </trkpt>
      <trkpt lat="44.73919" lon="5.9085">
        <ele>1336</ele>
        <time>2018-08-27T21:07:17Z</time>
      </trkpt>
      <trkpt lat="44.7394" lon="5.90798">
        <ele>1331</ele>
        <time>2018-08-27T21:08:17Z</time>
      </trkpt>
      <trkpt lat="44.73971" lon="5.90771">
        <ele>1332</ele>
        <time>2018-08-27T21:09:17Z</time>
      </trkpt>
      <trkpt lat="44.73998" lon="5.90705">
        <ele>1328</ele>
        <time>2018-08-27T21:10:17Z</time>
      </trkpt>
      <trkpt lat="44.74022" lon="5.90603">
        <ele>1322</ele>
        <time>2018-08-27T21:11:17Z</time>
      </trkpt>
      <trkpt lat="44.74038" lon="5.90376">
        <ele>1305</ele>
        <time>2018-08-27T21:12:17Z</time>
      </trkpt>
      <trkpt lat="44.74055" lon="5.90284">
        <ele>1303</ele>
        <time>2018-08-27T21:13:17Z</time>
      </trkpt>
      <trkpt lat="44.74027" lon="5.90338">
        <ele>1298</ele>
        <time>2018-08-27T21:14:17Z</time>
      </trkpt>
      <trkpt lat="44.73978" lon="5.90368">
        <ele>1286</ele>
        <time>2018-08-27T21:15:17Z</time>
      </trkpt>
      <trkpt lat="44.73945" lon="5.90411">
        <ele>1281</ele>
        <time>2018-08-27T21:16:17Z</time>
      </trkpt>
      <trkpt lat="44.73933" lon="5.904">
        <ele>1278</ele>
        <time>2018-08-27T21:17:17Z</time>
      </trkpt>
      <trkpt lat="44.73935" lon="5.90288">
        <ele>1273</ele>
        <time>2018-08-27T21:18:17Z</time>
      </trkpt>
      <trkpt lat="44.73917" lon="5.90222">
        <ele>1267</ele>
        <time>2018-08-27T21:19:17Z</time>
      </trkpt>
      <trkpt lat="44.73934" lon="5.9016">
        <ele>1269</ele>
        <time>2018-08-27T21:20:17Z</time>
      </trkpt>
      <trkpt lat="44.74003" lon="5.90115">
        <ele>1282</ele>
        <time>2018-08-27T21:21:17Z</time>
      </trkpt>
      <trkpt lat="44.74016" lon="5.90072">
        <ele>1283</ele>
        <time>2018-08-27T21:22:17Z</time>
      </trkpt>
      <trkpt lat="44.73995" lon="5.90102">
        <ele>1279</ele>
        <time>2018-08-27T21:23:17Z</time>
      </trkpt>
      <trkpt lat="44.73924" lon="5.90158">
        <ele>1267</ele>
        <time>2018-08-27T21:24:17Z</time>
      </trkpt>
      <trkpt lat="44.73907" lon="5.9019">
        <ele>1265</ele>
        <time>2018-08-27T21:25:17Z</time>
      </trkpt>
      <trkpt lat="44.73855" lon="5.90247">
        <ele>1257</ele>
        <time>2018-08-27T21:26:17Z</time>
      </trkpt>
      <trkpt lat="44.73772" lon="5.90176">
        <ele>1239</ele>
        <time>2018-08-27T21:27:17Z</time>
      </trkpt>
      <trkpt lat="44.73657" lon="5.90157">
        <ele>1214</ele>
        <time>2018-08-27T21:28:17Z</time>
      </trkpt>
      <trkpt lat="44.73599" lon="5.90147">
        <ele>1198</ele>
        <time>2018-08-27T21:29:17Z</time>
      </trkpt>
      <trkpt lat="44.7358" lon="5.9011">
        <ele>1188</ele>
        <time>2018-08-27T21:30:17Z</time>
      </trkpt>
      <trkpt lat="44.73586" lon="5.89988">
        <ele>1170</ele>
        <time>2018-08-27T21:31:17Z</time>
      </trkpt>
      <trkpt lat="44.73549" lon="5.89958">
        <ele>1154</ele>
        <time>2018-08-27T21:32:17Z</time>
      </trkpt>
      <trkpt lat="44.735" lon="5.89996">
        <ele>1149</ele>
        <time>2018-08-27T21:33:17Z</time>
      </trkpt>
      <trkpt lat="44.73448" lon="5.90185">
        <ele>1157</ele>
        <time>2018-08-27T21:34:17Z</time>
      </trkpt>
      <trkpt lat="44.73083" lon="5.90572">
        <ele>1101</ele>
        <time>2018-08-27T21:35:17Z</time>
      </trkpt>
      <trkpt lat="44.73039" lon="5.90585">
        <ele>1093</ele>
        <time>2018-08-27T21:36:17Z</time>
      </trkpt>
      <trkpt lat="44.73013" lon="5.90632">
        <ele>1095</ele>
        <time>2018-08-27T21:37:17Z</time>
      </trkpt>
      <trkpt lat="44.72978" lon="5.90614">
        <ele>1083</ele>
        <time>2018-08-27T21:38:17Z</time>
      </trkpt>
      <trkpt lat="44.72856" lon="5.90719">
        <ele>1070</ele>
        <time>2018-08-27T21:39:17Z</time>
      </trkpt>
      <trkpt lat="44.72749" lon="5.9088">
        <ele>1062</ele>
        <time>2018-08-27T21:40:17Z</time>
      </trkpt>
      <trkpt lat="44.72705" lon="5.90859">
        <ele>1070</ele>
        <time>2018-08-27T21:41:17Z</time>
      </trkpt>
      <trkpt lat="44.72724" lon="5.90696">
        <ele>1072</ele>
        <time>2018-08-27T21:42:17Z</time>
      </trkpt>
      <trkpt lat="44.72778" lon="5.90658">
        <ele>1064</ele>
        <time>2018-08-27T21:43:17Z</time>
      </trkpt>
      <trkpt lat="44.72768" lon="5.90527">
        <ele>1075</ele>
        <time>2018-08-27T21:44:17Z</time>
      </trkpt>
      <trkpt lat="44.72764" lon="5.90493">
        <ele>1079</ele>
        <time>2018-08-27T21:45:17Z</time>
      </trkpt>
      <trkpt lat="44.72736" lon="5.90565">
        <ele>1081</ele>
        <time>2018-08-27T21:46:17Z</time>
      </trkpt>
      <trkpt lat="44.7271" lon="5.90608">
        <ele>1083</ele>
        <time>2018-08-27T21:47:17Z</time>
      </trkpt>
      <trkpt lat="44.72721" lon="5.90575">
        <ele>1084</ele>
        <time>2018-08-27T21:48:17Z</time>
      </trkpt>
      <trkpt lat="44.72728" lon="5.90562">
        <ele>1083</ele>
        <time>2018-08-27T21:49:17Z</time>
      </trkpt>
      <trkpt lat="44.7272" lon="5.90559">
        <ele>1085</ele>
        <time>2018-08-27T21:50:17Z</time>
      </trkpt>
      <trkpt lat="44.72715" lon="5.90548">
        <ele>1087</ele>
        <time>2018-08-27T21:51:17Z</time>
      </trkpt>
      <trkpt lat="44.72707" lon="5.9054">
        <ele>1090</ele>
        <time>2018-08-27T21:52:17Z</time>
      </trkpt>
      <trkpt lat="44.72687" lon="5.90542">
        <ele>1095</ele>
        <time>2018-08-27T21:53:17Z</time>
      </trkpt>
      <trkpt lat="44.72666" lon="5.90529">
        <ele>1102</ele>
        <time>2018-08-27T21:54:17Z</time>
      </trkpt>
      <trkpt lat="44.72656" lon="5.90512">
        <ele>1106</ele>
        <time>2018-08-27T21:55:17Z</time>
      </trkpt>
      <trkpt lat="44.72653" lon="5.90501">
        <ele>1107</ele>
        <time>2018-08-27T21:56:17Z</time>
      </trkpt>
      <trkpt lat="44.72656" lon="5.90471">
        <ele>1110</ele>
        <time>2018-08-27T21:57:17Z</time>
      </trkpt>
      <trkpt lat="44.72665" lon="5.90444">
        <ele>1111</ele>
        <time>2018-08-27T21:58:17Z</time>
      </trkpt>
      <trkpt lat="44.72694" lon="5.90397">
        <ele>1108</ele>
        <time>2018-08-27T21:59:17Z</time>
      </trkpt>
      <trkpt lat="44.72714" lon="5.90365">
        <ele>1106</ele>
        <time>2018-08-27T22:00:17Z</time>
      </trkpt>
      <trkpt lat="44.72719" lon="5.90339">
        <ele>1108</ele>
        <time>2018-08-27T22:01:17Z</time>
      </trkpt>
      <trkpt lat="44.72792" lon="5.90107">
        <ele>1096</ele>
        <time>2018-08-27T22:02:17Z</time>
      </trkpt>
      <trkpt lat="44.72784" lon="5.89946">
        <ele>1073</ele>
        <time>2018-08-27T22:03:17Z</time>
      </trkpt>
      <trkpt lat="44.72726" lon="5.89865">
        <ele>1069</ele>
        <time>2018-08-27T22:04:17Z</time>
      </trkpt>
      <trkpt lat="44.72606" lon="5.89827">
        <ele>1083</ele>
        <time>2018-08-27T22:05:17Z</time>
      </trkpt>
      <trkpt lat="44.72269" lon="5.89623">
        <ele>1092</ele>
        <time>2018-08-27T22:06:17Z</time>
      </trkpt>
      <trkpt lat="44.72212" lon="5.89445">
        <ele>1098</ele>
        <time>2018-08-27T22:07:17Z</time>
      </trkpt>
      <trkpt lat="44.7216" lon="5.89381">
        <ele>1095</ele>
        <time>2018-08-27T22:08:17Z</time>
      </trkpt>
      <trkpt lat="44.72109" lon="5.89306">
        <ele>1098</ele>
        <time>2018-08-27T22:09:17Z</time>
      </trkpt>
      <trkpt lat="44.72045" lon="5.89297">
        <ele>1092</ele>
        <time>2018-08-27T22:10:17Z</time>
      </trkpt>
      <trkpt lat="44.7208" lon="5.89255">
        <ele>1097</ele>
        <time>2018-08-27T22:11:17Z</time>
      </trkpt>
      <trkpt lat="44.72129" lon="5.89282">
        <ele>1105</ele>
        <time>2018-08-27T22:12:17Z</time>
      </trkpt>
      <trkpt lat="44.72012" lon="5.89139">
        <ele>1109</ele>
        <time>2018-08-27T22:13:17Z</time>
      </trkpt>
      <trkpt lat="44.71875" lon="5.88898">
        <ele>1117</ele>
        <time>2018-08-27T22:14:17Z</time>
      </trkpt>
      <trkpt lat="44.71849" lon="5.88821">
        <ele>1119</ele>
        <time>2018-08-27T22:15:17Z</time>
      </trkpt>
      <trkpt lat="44.71806" lon="5.88827">
        <ele>1112</ele>
        <time>2018-08-27T22:16:17Z</time>
      </trkpt>
      <trkpt lat="44.71762" lon="5.88677">
        <ele>1141</ele>
        <time>2018-08-27T22:17:17Z</time>
      </trkpt>
      <trkpt lat="44.7172" lon="5.88656">
        <ele>1146</ele>
        <time>2018-08-27T22:18:17Z</time>
      </trkpt>
      <trkpt lat="44.71683" lon="5.88569">
        <ele>1163</ele>
        <time>2018-08-27T22:19:17Z</time>
      </trkpt>
      <trkpt lat="44.71662" lon="5.88515">
        <ele>1175</ele>
        <time>2018-08-27T22:20:17Z</time>
      </trkpt>
      <trkpt lat="44.71624" lon="5.88471">
        <ele>1186</ele>
        <time>2018-08-27T22:21:17Z</time>
      </trkpt>
      <trkpt lat="44.71597" lon="5.88421">
        <ele>1194</ele>
        <time>2018-08-27T22:22:17Z</time>
      </trkpt>
      <trkpt lat="44.71586" lon="5.88366">
        <ele>1201</ele>
        <time>2018-08-27T22:23:17Z</time>
      </trkpt>
      <trkpt lat="44.71611" lon="5.88344">
        <ele>1207</ele>
        <time>2018-08-27T22:24:17Z</time>
      </trkpt>
      <trkpt lat="44.71623" lon="5.88313">
        <ele>1214</ele>
        <time>2018-08-27T22:25:17Z</time>
      </trkpt>
      <trkpt lat="44.71579" lon="5.88287">
        <ele>1211</ele>
        <time>2018-08-27T22:26:17Z</time>
      </trkpt>
      <trkpt lat="44.7158" lon="5.88267">
        <ele>1213</ele>
        <time>2018-08-27T22:27:17Z</time>
      </trkpt>
      <trkpt lat="44.71525" lon="5.8823">
        <ele>1217</ele>
        <time>2018-08-27T22:28:17Z</time>
      </trkpt>
      <trkpt lat="44.71431" lon="5.88221">
        <ele>1212</ele>
        <time>2018-08-27T22:29:17Z</time>
      </trkpt>
      <trkpt lat="44.71426" lon="5.88191">
        <ele>1217</ele>
        <time>2018-08-27T22:30:17Z</time>
      </trkpt>
      <trkpt lat="44.7137" lon="5.88197">
        <ele>1215</ele>
        <time>2018-08-27T22:31:17Z</time>
      </trkpt>
      <trkpt lat="44.71305" lon="5.88231">
        <ele>1206</ele>
        <time>2018-08-27T22:32:17Z</time>
      </trkpt>
      <trkpt lat="44.71133" lon="5.88243">
        <ele>1202</ele>
        <time>2018-08-27T22:33:17Z</time>
      </trkpt>
      <trkpt lat="44.71092" lon="5.88213">
        <ele>1208</ele>
        <time>2018-08-27T22:34:17Z</time>
      </trkpt>
      <trkpt lat="44.71046" lon="5.88227">
        <ele>1207</ele>
        <time>2018-08-27T22:35:17Z</time>
      </trkpt>
      <trkpt lat="44.71041" lon="5.88252">
        <ele>1205</ele>
        <time>2018-08-27T22:36:17Z</time>
      </trkpt>
      <trkpt lat="44.71008" lon="5.88257">
        <ele>1207</ele>
        <time>2018-08-27T22:37:17Z</time>
      </trkpt>
      <trkpt lat="44.70969" lon="5.88266">
        <ele>1213</ele>
        <time>2018-08-27T22:38:17Z</time>
      </trkpt>
      <trkpt lat="44.70902" lon="5.88256">
        <ele>1227</ele>
        <time>2018-08-27T22:39:17Z</time>
      </trkpt>
      <trkpt lat="44.70855" lon="5.88262">
        <ele>1242</ele>
        <time>2018-08-27T22:40:17Z</time>
      </trkpt>
      <trkpt lat="44.70749" lon="5.88215">
        <ele>1274</ele>
        <time>2018-08-27T22:41:17Z</time>
      </trkpt>
      <trkpt lat="44.70643" lon="5.88112">
        <ele>1299</ele>
        <time>2018-08-27T22:42:17Z</time>
      </trkpt>
      <trkpt lat="44.70569" lon="5.88103">
        <ele>1322</ele>
        <time>2018-08-27T22:43:17Z</time>
      </trkpt>
      <trkpt lat="44.70549" lon="5.88096">
        <ele>1321</ele>
        <time>2018-08-27T22:44:17Z</time>
      </trkpt>
      <trkpt lat="44.70562" lon="5.8807">
        <ele>1324</ele>
        <time>2018-08-27T22:45:17Z</time>
      </trkpt>
      <trkpt lat="44.70539" lon="5.87996">
        <ele>1335</ele>
        <time>2018-08-27T22:46:17Z</time>
      </trkpt>
      <trkpt lat="44.70404" lon="5.87744">
        <ele>1379</ele>
        <time>2018-08-27T22:47:17Z</time>
      </trkpt>
      <trkpt lat="44.70356" lon="5.8765">
        <ele>1386</ele>
        <time>2018-08-27T22:48:17Z</time>
      </trkpt>
      <trkpt lat="44.70344" lon="5.87566">
        <ele>1400</ele>
        <time>2018-08-27T22:49:17Z</time>
      </trkpt>
      <trkpt lat="44.70358" lon="5.87516">
        <ele>1406</ele>
        <time>2018-08-27T22:50:17Z</time>
      </trkpt>
      <trkpt lat="44.70329" lon="5.87369">
        <ele>1425</ele>
        <time>2018-08-27T22:51:17Z</time>
      </trkpt>
      <trkpt lat="44.70347" lon="5.87007">
        <ele>1439</ele>
        <time>2018-08-27T22:52:17Z</time>
      </trkpt>
      <trkpt lat="44.70401" lon="5.86728">
        <ele>1446</ele>
        <time>2018-08-27T22:53:17Z</time>
      </trkpt>
      <trkpt lat="44.70418" lon="5.86526">
        <ele>1464</ele>
        <time>2018-08-27T22:54:17Z</time>
      </trkpt>
      <trkpt lat="44.70384" lon="5.86518">
        <ele>1465</ele>
        <time>2018-08-27T22:55:17Z</time>
      </trkpt>
      <trkpt lat="44.70327" lon="5.86536">
        <ele>1460</ele>
        <time>2018-08-27T22:56:17Z</time>
      </trkpt>
      <trkpt lat="44.70222" lon="5.86526">
        <ele>1456</ele>
        <time>2018-08-27T22:57:17Z</time>
      </trkpt>
      <trkpt lat="44.70192" lon="5.86496">
        <ele>1455</ele>
        <time>2018-08-27T22:58:17Z</time>
      </trkpt>
      <trkpt lat="44.70102" lon="5.86464">
        <ele>1457</ele>
        <time>2018-08-27T22:59:17Z</time>
      </trkpt>
      <trkpt lat="44.6999" lon="5.86441">
        <ele>1451</ele>
        <time>2018-08-27T23:00:17Z</time>
      </trkpt>
      <trkpt lat="44.69886" lon="5.86362">
        <ele>1455</ele>
        <time>2018-08-27T23:01:17Z</time>
      </trkpt>
      <trkpt lat="44.69678" lon="5.86325">
        <ele>1434</ele>
        <time>2018-08-27T23:02:17Z</time>
      </trkpt>
      <trkpt lat="44.69482" lon="5.86323">
        <ele>1410</ele>
        <time>2018-08-27T23:03:17Z</time>
      </trkpt>
      <trkpt lat="44.69373" lon="5.86369">
        <ele>1397</ele>
        <time>2018-08-27T23:04:17Z</time>
      </trkpt>
      <trkpt lat="44.69328" lon="5.86363">
        <ele>1397</ele>
        <time>2018-08-27T23:05:17Z</time>
      </trkpt>
      <trkpt lat="44.69294" lon="5.86418">
        <ele>1394</ele>
        <time>2018-08-27T23:06:17Z</time>
      </trkpt>
      <trkpt lat="44.69251" lon="5.86376">
        <ele>1396</ele>
        <time>2018-08-27T23:07:17Z</time>
      </trkpt>
      <trkpt lat="44.69201" lon="5.86375">
        <ele>1396</ele>
        <time>2018-08-27T23:08:17Z</time>
      </trkpt>
      <trkpt lat="44.69194" lon="5.86348">
        <ele>1398</ele>
        <time>2018-08-27T23:09:17Z</time>
      </trkpt>
      <trkpt lat="44.69164" lon="5.86341">
        <ele>1399</ele>
        <time>2018-08-27T23:10:17Z</time>
      </trkpt>
      <trkpt lat="44.69129" lon="5.86279">
        <ele>1404</ele>
        <time>2018-08-27T23:11:17Z</time>
      </trkpt>
      <trkpt lat="44.69096" lon="5.86303">
        <ele>1404</ele>
        <time>2018-08-27T23:12:17Z</time>
      </trkpt>
      <trkpt lat="44.69002" lon="5.86328">
        <ele>1403</ele>
        <time>2018-08-27T23:13:17Z</time>
      </trkpt>
      <trkpt lat="44.68969" lon="5.86323">
        <ele>1404</ele>
        <time>2018-08-27T23:14:17Z</time>
      </trkpt>
      <trkpt lat="44.68954" lon="5.86385">
        <ele>1403</ele>
        <time>2018-08-27T23:15:17Z</time>
      </trkpt>
      <trkpt lat="44.6895" lon="5.86581">
        <ele>1396</ele>
        <time>2018-08-27T23:16:17Z</time>
      </trkpt>
      <trkpt lat="44.68898" lon="5.86616">
        <ele>1395</ele>
        <time>2018-08-27T23:17:17Z</time>
      </trkpt>
      <trkpt lat="44.68793" lon="5.86566">
        <ele>1395</ele>
        <time>2018-08-27T23:18:17Z</time>
      </trkpt>
      <trkpt lat="44.68541" lon="5.8639">
        <ele>1396</ele>
        <time>2018-08-27T23:19:17Z</time>
      </trkpt>
      <trkpt lat="44.68489" lon="5.86386">
        <ele>1392</ele>
        <time>2018-08-27T23:20:17Z</time>
      </trkpt>
      <trkpt lat="44.68328" lon="5.86278">
        <ele>1390</ele>
        <time>2018-08-27T23:21:17Z</time>
      </trkpt>
      <trkpt lat="44.6824" lon="5.86206">
        <ele>1389</ele>
        <time>2018-08-27T23:22:17Z</time>
      </trkpt>
      <trkpt lat="44.68195" lon="5.86032">
        <ele>1392</ele>
        <time>2018-08-27T23:23:17Z</time>
      </trkpt>
      <trkpt lat="44.68073" lon="5.85883">
        <ele>1386</ele>
        <time>2018-08-27T23:24:17Z</time>
      </trkpt>
      <trkpt lat="44.67998" lon="5.85782">
        <ele>1388</ele>
        <time>2018-08-27T23:25:17Z</time>
      </trkpt>
      <trkpt lat="44.67932" lon="5.85634">
        <ele>1391</ele>
        <time>2018-08-27T23:26:17Z</time>
      </trkpt>
      <trkpt lat="44.67852" lon="5.85552">
        <ele>1389</ele>
        <time>2018-08-27T23:27:17Z</time>
      </trkpt>
      <trkpt lat="44.67736" lon="5.85615">
        <ele>1398</ele>
        <time>2018-08-27T23:28:17Z</time>
      </trkpt>
      <trkpt lat="44.6761" lon="5.85583">
        <ele>1397</ele>
        <time>2018-08-27T23:29:17Z</time>
      </trkpt>
      <trkpt lat="44.67492" lon="5.85627">
        <ele>1397</ele>
        <time>2018-08-27T23:30:17Z</time>
      </trkpt>
      <trkpt lat="44.67418" lon="5.85601">
        <ele>1398</ele>
        <time>2018-08-27T23:31:17Z</time>
      </trkpt>
      <trkpt lat="44.67369" lon="5.85569">
        <ele>1401</ele>
        <time>2018-08-27T23:32:17Z</time>
      </trkpt>
      <trkpt lat="44.67274" lon="5.85576">
        <ele>1404</ele>
        <time>2018-08-27T23:33:17Z</time>
      </trkpt>
      <trkpt lat="44.67223" lon="5.85615">
        <ele>1405</ele>
        <time>2018-08-27T23:34:17Z</time>
      </trkpt>
      <trkpt lat="44.67211" lon="5.85581">
        <ele>1406</ele>
        <time>2018-08-27T23:35:17Z</time>
      </trkpt>
      <trkpt lat="44.67009" lon="5.85575">
        <ele>1419</ele>
        <time>2018-08-27T23:36:17Z</time>
      </trkpt>
      <trkpt lat="44.66816" lon="5.85682">
        <ele>1436</ele>
        <time>2018-08-27T23:37:17Z</time>
      </trkpt>
      <trkpt lat="44.66699" lon="5.85663">
        <ele>1445</ele>
        <time>2018-08-27T23:38:17Z</time>
      </trkpt>
      <trkpt lat="44.66726" lon="5.85824">
        <ele>1439</ele>
        <time>2018-08-27T23:39:17Z</time>
      </trkpt>
      <trkpt lat="44.66704" lon="5.85867">
        <ele>1439</ele>
        <time>2018-08-27T23:40:17Z</time>
      </trkpt>
      <trkpt lat="44.66686" lon="5.85867">
        <ele>1440</ele>
        <time>2018-08-27T23:41:17Z</time>
      </trkpt>
      <trkpt lat="44.66674" lon="5.85879">
        <ele>1441</ele>
        <time>2018-08-27T23:42:17Z</time>
      </trkpt>
    </trkseg>
  </trk>
</gpx>